createdAt,value
2023-06-23T05:03:21.648Z,100162.75
2023-06-23T05:05:52.455Z,100160.00
2023-06-23T05:08:19.256Z,100165.28
2023-06-23T05:10:47.867Z,100171.59
2023-06-23T05:13:15.608Z,100173.41
2023-06-23T05:15:43.217Z,100176.03
2023-06-23T05:18:10.752Z,100179.66
2023-06-23T05:20:40.157Z,100189.44
2023-06-23T05:23:08.327Z,100185.78
2023-06-23T05:25:36.571Z,100198.19
2023-06-23T05:28:03.729Z,100205.19
2023-06-23T05:30:31.707Z,100209.59
2023-06-23T05:33:00.751Z,100214.22
2023-06-23T05:35:29.270Z,100210.56
2023-06-23T05:37:56.521Z,100212.25
2023-06-23T05:40:23.781Z,100217.56
2023-06-23T05:42:50.352Z,100214.78
2023-06-23T05:45:17.230Z,100219.19
2023-06-23T05:47:49.856Z,100220.91
2023-06-23T05:50:21.309Z,100228.88
2023-06-23T05:52:56.032Z,100232.44
2023-06-23T05:55:23.515Z,100243.97
2023-06-23T05:57:52.465Z,100258.16
2023-06-23T06:00:20.341Z,100263.44
2023-06-23T06:02:48.382Z,100267.75
2023-06-23T06:05:17.707Z,100266.97
2023-06-23T06:07:45.166Z,100267.66
2023-06-23T06:10:12.445Z,100273.91
2023-06-23T06:12:40.432Z,100281.00
2023-06-23T06:15:07.865Z,100279.09
2023-06-23T06:17:35.082Z,100297.09
2023-06-23T06:20:03.891Z,100299.78
2023-06-23T06:22:33.519Z,100301.81
2023-06-23T06:25:00.747Z,100310.06
2023-06-23T06:27:28.496Z,100313.59
2023-06-23T06:29:56.303Z,100320.69
2023-06-23T06:32:24.108Z,100327.81
2023-06-23T06:34:51.326Z,100335.94
2023-06-23T06:37:19.540Z,100338.44
2023-06-23T06:39:46.478Z,100347.41
2023-06-23T06:42:13.813Z,100347.22
2023-06-23T06:44:41.725Z,100352.59
2023-06-23T06:47:10.460Z,100352.78
2023-06-23T06:49:37.687Z,100352.78
2023-06-23T06:52:05.389Z,100360.84
2023-06-23T06:54:31.939Z,100364.38
2023-06-23T06:56:59.339Z,100377.69
2023-06-23T06:59:25.998Z,100377.03
2023-06-23T07:01:53.892Z,100383.25
2023-06-23T07:04:20.735Z,100394.00
2023-06-23T07:06:56.735Z,100409.94
2023-06-23T07:09:23.227Z,100408.22
2023-06-23T07:11:50.713Z,100406.31
2023-06-23T07:14:17.472Z,100410.53
2023-06-23T07:16:44.433Z,100424.75
2023-06-23T07:19:10.969Z,100433.66
2023-06-23T07:21:37.904Z,100440.09
2023-06-23T07:24:04.535Z,100445.28
2023-06-23T07:26:31.519Z,100449.59
2023-06-23T07:28:58.064Z,100455.09
2023-06-23T07:31:27.071Z,100452.41
2023-06-23T07:33:53.842Z,100461.25
2023-06-23T07:36:20.688Z,100473.53
2023-06-23T07:38:47.277Z,100473.34
2023-06-23T07:41:14.468Z,100482.19
2023-06-23T07:43:43.043Z,100483.75
2023-06-23T07:46:10.233Z,100490.88
2023-06-23T07:48:36.789Z,100502.47
2023-06-23T07:51:04.254Z,100491.56
2023-06-23T07:53:30.755Z,100503.94
2023-06-23T07:55:57.932Z,100503.84
2023-06-23T07:58:24.386Z,100514.53
2023-06-23T08:00:53.105Z,100513.56
2023-06-23T08:03:20.092Z,100515.13
2023-06-23T08:05:47.236Z,100514.94
2023-06-23T08:08:13.709Z,100522.16
2023-06-23T08:10:41.885Z,100520.16
2023-06-23T08:13:09.833Z,100517.38
2023-06-23T08:15:36.973Z,100525.16
2023-06-23T08:18:03.684Z,100528.63
2023-06-23T08:20:30.554Z,100533.81
2023-06-23T08:22:57.713Z,100532.69
2023-06-23T08:25:24.206Z,100544.25
2023-06-23T08:27:51.054Z,100547.69
2023-06-23T08:30:25.201Z,100549.28
2023-06-23T08:32:52.381Z,100547.38
2023-06-23T08:35:18.976Z,100548.91
2023-06-23T08:37:46.219Z,100557.56
2023-06-23T08:40:13.009Z,100557.38
2023-06-23T08:42:40.400Z,100556.06
2023-06-23T08:45:08.101Z,100552.31
2023-06-23T08:47:37.306Z,100553.00
2023-06-23T08:50:04.529Z,100574.19
2023-06-23T08:52:31.598Z,100571.22
2023-06-23T08:54:58.268Z,100569.97
2023-06-23T08:57:25.187Z,100576.69
2023-06-23T08:59:52.450Z,100583.44
2023-06-23T09:02:19.742Z,100584.91
2023-06-23T09:04:46.589Z,100588.28
2023-06-23T09:07:13.324Z,100590.00
2023-06-23T09:09:42.628Z,100595.31
2023-06-23T09:12:09.571Z,100592.81
2023-06-23T09:14:38.612Z,100596.38
2023-06-23T09:17:05.364Z,100598.09
2023-06-23T09:19:36.256Z,100603.28
2023-06-23T09:22:03.898Z,100603.09
2023-06-23T09:24:41.363Z,100604.56
2023-06-23T09:27:08.388Z,100601.56
2023-06-23T09:29:38.616Z,100614.09
2023-06-23T09:32:05.329Z,100610.44
2023-06-23T09:34:37.846Z,100616.41
2023-06-23T09:37:08.495Z,100615.25
2023-06-23T09:39:39.165Z,100616.63
2023-06-23T09:42:13.782Z,100622.59
2023-06-23T09:44:41.567Z,100631.84
2023-06-23T09:47:08.503Z,100633.00
2023-06-23T09:49:42.626Z,100632.22
2023-06-23T09:52:10.435Z,100630.69
2023-06-23T09:54:38.122Z,100640.78
2023-06-23T09:57:14.876Z,100636.91
2023-06-23T09:59:42.119Z,100640.84
2023-06-23T10:02:10.001Z,100632.91
2023-06-23T10:04:37.046Z,100633.41
2023-06-23T10:07:23.255Z,100637.56
2023-06-23T10:09:59.394Z,100626.56
2023-06-23T10:12:33.533Z,100639.06
2023-06-23T10:15:01.348Z,100636.94
2023-06-23T10:17:27.969Z,100641.16
2023-06-23T10:19:55.545Z,100644.53
2023-06-23T10:22:23.115Z,100653.19
2023-06-23T10:24:53.551Z,100647.56
2023-06-23T10:27:24.787Z,100651.69
2023-06-23T10:29:55.499Z,100656.91
2023-06-23T10:32:26.127Z,100655.16
2023-06-23T10:34:53.483Z,100663.16
2023-06-23T10:37:31.646Z,100663.81
2023-06-23T10:40:07.354Z,100673.13
2023-06-23T10:42:37.740Z,100675.31
2023-06-23T10:45:04.860Z,100673.16
2023-06-23T10:47:31.770Z,100678.38
2023-06-23T10:49:58.677Z,100676.03
2023-06-23T10:52:25.970Z,100675.59
2023-06-23T10:54:52.672Z,100685.00
2023-06-23T10:57:21.088Z,100683.81
2023-06-23T11:00:00.648Z,100680.75
2023-06-23T11:02:29.275Z,100683.44
2023-06-23T11:04:56.998Z,100684.63
2023-06-23T11:07:24.844Z,100687.94
2023-06-23T11:09:59.724Z,100693.59
2023-06-23T11:12:30.046Z,100694.91
2023-06-23T11:17:34.789Z,100686.28
2023-06-23T11:20:03.171Z,100704.31
2023-06-23T11:22:38.973Z,100688.84
2023-06-23T11:25:24.239Z,100694.78
2023-06-23T11:28:15.922Z,100682.53
2023-06-23T11:33:57.049Z,100690.34
2023-06-23T11:36:32.399Z,100680.72
2023-06-23T11:39:09.495Z,100692.13
2023-06-23T11:41:40.338Z,100691.94
2023-06-23T11:44:14.607Z,100688.25
2023-06-23T11:46:46.050Z,100696.47
2023-06-23T11:49:15.159Z,100691.66
2023-06-23T11:51:55.161Z,100695.84
2023-06-23T11:54:29.874Z,100682.84
2023-06-23T11:57:01.949Z,100673.91
2023-06-23T11:59:38.842Z,100683.03
2023-06-23T12:02:08.018Z,100672.00
2023-06-23T12:04:38.184Z,100681.16
2023-06-23T12:07:10.565Z,100678.53
2023-06-23T12:09:38.696Z,100688.97
2023-06-23T12:14:37.783Z,100680.47
2023-06-23T12:17:15.241Z,100679.16
2023-06-23T12:19:45.404Z,100678.47
2023-06-23T12:22:19.122Z,100682.44
2023-06-23T12:24:52.563Z,100689.28
2023-06-23T12:27:20.501Z,100679.91
2023-06-23T12:29:47.142Z,100685.34
2023-06-23T12:32:18.034Z,100686.03
2023-06-23T12:34:50.331Z,100684.34
2023-06-23T12:37:20.054Z,100680.06
2023-06-23T12:39:55.606Z,100680.84
2023-06-23T12:42:24.321Z,100674.69
2023-06-23T12:44:55.442Z,100679.13
2023-06-23T12:47:29.118Z,100672.63
2023-06-23T12:50:03.349Z,100681.19
2023-06-23T12:52:45.212Z,100678.28
2023-06-23T12:55:14.835Z,100673.19
2023-06-23T12:57:59.782Z,100680.38
2023-06-23T13:00:26.396Z,100671.31
2023-06-23T13:02:55.358Z,100673.88
2023-06-23T13:05:21.956Z,100680.91
2023-06-23T13:07:49.156Z,100675.94
2023-06-23T13:10:15.713Z,100671.75
2023-06-23T13:12:42.924Z,100687.84
2023-06-23T13:15:09.861Z,100672.78
2023-06-23T13:17:36.739Z,100682.13
2023-06-23T13:20:05.276Z,100679.41
2023-06-23T13:22:32.475Z,100688.44
2023-06-23T13:24:59.203Z,100682.69
2023-06-23T13:27:26.538Z,100685.97
2023-06-23T13:29:53.084Z,100690.44
2023-06-23T13:32:20.226Z,100688.44
2023-06-23T13:34:46.816Z,100683.41
2023-06-23T13:37:13.461Z,100689.59
2023-06-23T13:39:40.108Z,100685.16
2023-06-23T13:42:07.564Z,100678.06
2023-06-23T13:44:34.078Z,100681.22
2023-06-23T13:47:01.354Z,100689.50
2023-06-23T13:49:27.929Z,100686.59
2023-06-23T13:51:55.112Z,100681.84
2023-06-23T13:54:21.682Z,100684.97
2023-06-23T13:56:48.523Z,100695.38
2023-06-23T13:59:15.135Z,100690.22
2023-06-23T14:01:42.032Z,100680.13
2023-06-23T14:04:08.630Z,100676.47
2023-06-23T14:06:35.994Z,100681.63
2023-06-23T14:09:04.487Z,100685.50
2023-06-23T14:11:31.728Z,100676.88
2023-06-23T14:13:58.381Z,100676.59
2023-06-23T14:16:25.709Z,100679.44
2023-06-23T14:18:52.224Z,100677.19
2023-06-23T14:21:19.375Z,100669.97
2023-06-23T14:23:45.909Z,100684.66
2023-06-23T14:26:13.020Z,100684.75
2023-06-23T14:28:39.500Z,100683.03
2023-06-23T14:31:08.610Z,100670.19
2023-06-23T14:33:35.602Z,100682.88
2023-06-23T14:36:03.114Z,100678.16
2023-06-23T14:38:30.037Z,100674.72
2023-06-23T14:40:57.670Z,100685.50
2023-06-23T14:43:24.380Z,100676.03
2023-06-23T14:45:52.489Z,100673.53
2023-06-23T14:48:19.459Z,100675.25
2023-06-23T14:50:46.938Z,100678.81
2023-06-23T14:53:13.748Z,100682.56
2023-06-23T14:55:41.212Z,100676.13
2023-06-23T14:58:07.733Z,100682.13
2023-06-23T15:00:34.892Z,100681.97
2023-06-23T15:03:01.618Z,100690.31
2023-06-23T15:05:30.485Z,100683.28
2023-06-23T15:07:57.388Z,100692.44
2023-06-23T15:10:24.415Z,100695.88
2023-06-23T15:12:50.973Z,100687.56
2023-06-23T15:15:18.041Z,100684.38
2023-06-23T15:17:44.594Z,100682.50
2023-06-23T15:20:11.665Z,100691.69
2023-06-23T15:22:38.254Z,100696.84
2023-06-23T15:25:05.316Z,100691.56
2023-06-23T15:27:31.931Z,100683.22
2023-06-23T15:29:58.777Z,100688.97
2023-06-23T15:32:25.326Z,100694.72
2023-06-23T15:34:52.858Z,100695.31
2023-06-23T15:37:20.462Z,100689.59
2023-06-23T15:39:47.585Z,100699.34
2023-06-23T15:42:14.161Z,100690.75
2023-06-23T15:44:41.345Z,100693.63
2023-06-23T15:47:08.046Z,100698.50
2023-06-23T15:49:36.009Z,100694.03
2023-06-23T15:52:02.662Z,100694.44
2023-06-23T15:54:31.108Z,100702.28
2023-06-23T15:56:59.114Z,100696.59
2023-06-23T15:59:25.985Z,100692.03
2023-06-23T16:01:52.480Z,100694.34
2023-06-23T16:04:19.801Z,100694.47
2023-06-23T16:06:46.557Z,100693.91
2023-06-23T16:09:13.414Z,100687.16
2023-06-23T16:11:39.893Z,100684.94
2023-06-23T16:14:07.051Z,100685.97
2023-06-23T16:16:33.609Z,100698.41
2023-06-23T16:19:00.836Z,100704.59
2023-06-23T16:21:27.822Z,100701.31
2023-06-23T16:23:54.631Z,100703.59
2023-06-23T16:26:21.249Z,100705.47
2023-06-23T16:28:48.661Z,100704.84
2023-06-23T16:31:15.219Z,100708.72
2023-06-23T16:33:42.273Z,100707.28
2023-06-23T16:36:08.779Z,100707.56
2023-06-23T16:38:37.251Z,100701.25
2023-06-23T16:41:03.846Z,100706.44
2023-06-23T16:43:31.037Z,100710.72
2023-06-23T16:45:57.530Z,100707.28
2023-06-23T16:48:24.664Z,100705.09
2023-06-23T16:50:51.361Z,100708.97
2023-06-23T16:53:18.288Z,100714.81
2023-06-23T16:55:45.001Z,100716.69
2023-06-23T16:58:12.493Z,100713.09
2023-06-23T17:00:38.968Z,100707.78
2023-06-23T17:03:07.303Z,100707.50
2023-06-23T17:05:36.235Z,100711.22
2023-06-23T17:08:03.123Z,100704.59
2023-06-23T17:10:29.653Z,100705.16
2023-06-23T17:12:56.751Z,100714.59
2023-06-23T17:15:23.297Z,100715.13
2023-06-23T17:17:50.383Z,100714.78
2023-06-23T17:20:17.721Z,100723.63
2023-06-23T17:22:44.249Z,100726.16
2023-06-23T17:25:13.438Z,100728.97
2023-06-23T17:27:40.866Z,100725.78
2023-06-23T17:30:08.195Z,100720.88
2023-06-23T17:32:35.157Z,100732.00
2023-06-23T17:35:02.407Z,100730.09
2023-06-23T17:37:28.965Z,100738.06
2023-06-23T17:39:56.099Z,100742.38
2023-06-23T17:42:22.612Z,100738.47
2023-06-23T17:44:49.788Z,100736.88
2023-06-23T17:47:16.405Z,100735.41
2023-06-23T17:49:43.741Z,100735.94
2023-06-23T17:52:10.433Z,100732.72
2023-06-23T17:54:37.723Z,100738.66
2023-06-23T17:57:04.781Z,100741.63
2023-06-23T17:59:31.774Z,100730.06
2023-06-23T18:01:58.532Z,100744.63
2023-06-23T18:04:29.422Z,100744.88
2023-06-23T18:06:56.190Z,100745.41
2023-06-23T18:09:23.367Z,100746.91
2023-06-23T18:11:51.761Z,100750.13
2023-06-23T18:14:18.986Z,100754.34
2023-06-23T18:16:45.643Z,100754.59
2023-06-23T18:19:12.800Z,100755.78
2023-06-23T18:21:39.725Z,100765.28
2023-06-23T18:24:06.367Z,100754.06
2023-06-23T18:26:33.426Z,100762.97
2023-06-23T18:28:59.973Z,100768.00
2023-06-23T18:31:27.005Z,100762.97
2023-06-23T18:33:54.264Z,100757.75
2023-06-23T18:36:21.121Z,100759.13
2023-06-23T18:38:48.309Z,100759.50
2023-06-23T18:41:14.844Z,100757.25
2023-06-23T18:43:42.190Z,100767.75
2023-06-23T18:46:08.760Z,100769.97
2023-06-23T18:48:35.971Z,100768.63
2023-06-23T18:51:02.554Z,100774.47
2023-06-23T18:53:34.382Z,100777.66
2023-06-23T18:56:02.056Z,100780.72
2023-06-23T18:58:29.483Z,100784.03
2023-06-23T19:00:56.071Z,100780.81
2023-06-23T19:03:23.901Z,100782.16
2023-06-23T19:05:50.635Z,100779.78
2023-06-23T19:08:17.622Z,100780.25
2023-06-23T19:10:44.313Z,100782.47
2023-06-23T19:13:11.559Z,100790.31
2023-06-23T19:15:38.113Z,100796.22
2023-06-23T19:18:05.688Z,100802.06
2023-06-23T19:20:32.606Z,100795.38
2023-06-23T19:23:00.046Z,100797.56
2023-06-23T19:25:27.630Z,100807.13
2023-06-23T19:27:54.885Z,100811.16
2023-06-23T19:30:23.230Z,100811.72
2023-06-23T19:32:50.731Z,100818.53
2023-06-23T19:35:17.606Z,100822.66
2023-06-23T19:37:44.893Z,100831.34
2023-06-23T19:40:11.550Z,100833.75
2023-06-23T19:42:39.141Z,100836.03
2023-06-23T19:45:07.256Z,100838.41
2023-06-23T19:47:34.177Z,100839.69
2023-06-23T19:50:02.379Z,100846.41
2023-06-23T19:52:29.992Z,100839.69
2023-06-23T19:54:56.522Z,100849.97
2023-06-23T19:57:23.778Z,100851.38
2023-06-23T19:59:50.881Z,100854.47
2023-06-23T20:02:18.054Z,100851.22
2023-06-23T20:04:44.588Z,100851.66
2023-06-23T20:07:11.910Z,100850.34
2023-06-23T20:09:38.441Z,100857.03
2023-06-23T20:12:06.054Z,100854.75
2023-06-23T20:14:35.746Z,100854.22
2023-06-23T20:17:04.828Z,100856.44
2023-06-23T20:19:31.835Z,100852.44
2023-06-23T20:22:02.218Z,100850.13
2023-06-23T20:24:28.874Z,100851.41
2023-06-23T20:26:56.226Z,100853.56
2023-06-23T20:29:27.033Z,100848.44
